sensor_id;sensor_type;location;lat;lon;timestamp;P1;durP1;ratioP1;P2;durP2;ratioP2
29280;SDS011;25048;49.590;11.026;2023-03-25T00:00:33;202.43;;;189.53;;
29280;SDS011;25048;49.590;11.026;2023-03-25T00:03:03;172.40;;;161.03;;
29280;SDS011;25048;49.590;11.026;2023-03-25T00:05:30;152.30;;;142.43;;
29280;SDS011;25048;49.590;11.026;2023-03-25T00:07:58;166.07;;;155.97;;
29280;SDS011;25048;49.590;11.026;2023-03-25T00:10:25;169.47;;;158.67;;
29280;SDS011;25048;49.590;11.026;2023-03-25T00:12:53;253.23;;;236.07;;
29280;SDS011;25048;49.590;11.026;2023-03-25T00:15:21;273.77;;;254.63;;
29280;SDS011;25048;49.590;11.026;2023-03-25T00:17:48;236.80;;;221.33;;
29280;SDS011;25048;49.590;11.026;2023-03-25T00:20:16;238.00;;;222.30;;
29280;SDS011;25048;49.590;11.026;2023-03-25T00:22:43;223.37;;;208.37;;
29280;SDS011;25048;49.590;11.026;2023-03-25T00:25:16;259.87;;;242.00;;
29280;SDS011;25048;49.590;11.026;2023-03-25T00:27:42;237.07;;;221.23;;
29280;SDS011;25048;49.590;11.026;2023-03-25T00:30:11;256.83;;;239.80;;
29280;SDS011;25048;49.590;11.026;2023-03-25T00:32:40;275.17;;;255.80;;
29280;SDS011;25048;49.590;11.026;2023-03-25T00:35:09;306.90;;;285.10;;
29280;SDS011;25048;49.590;11.026;2023-03-25T00:37:38;323.50;;;298.53;;
29280;SDS011;25048;49.590;11.026;2023-03-25T00:40:06;357.97;;;329.70;;
29280;SDS011;25048;49.590;11.026;2023-03-25T00:42:36;440.53;;;400.63;;
29280;SDS011;25048;49.590;11.026;2023-03-25T00:45:05;683.30;;;395.47;;
29280;SDS011;25048;49.590;11.026;2023-03-25T00:47:33;188.30;;;176.37;;
29280;SDS011;25048;49.590;11.026;2023-03-25T00:50:01;325.07;;;301.33;;
29280;SDS011;25048;49.590;11.026;2023-03-25T00:52:29;262.63;;;245.63;;
29280;SDS011;25048;49.590;11.026;2023-03-25T00:54:56;755.87;;;440.13;;
29280;SDS011;25048;49.590;11.026;2023-03-25T00:57:24;493.60;;;444.90;;
29280;SDS011;25048;49.590;11.026;2023-03-25T00:59:51;333.90;;;309.57;;
29280;SDS011;25048;49.590;11.026;2023-03-25T01:02:19;391.13;;;359.90;;
29280;SDS011;25048;49.590;11.026;2023-03-25T01:04:46;427.40;;;389.80;;
29280;SDS011;25048;49.590;11.026;2023-03-25T01:07:16;324.97;;;300.70;;
29280;SDS011;25048;49.590;11.026;2023-03-25T01:09:46;311.23;;;288.90;;
29280;SDS011;25048;49.590;11.026;2023-03-25T01:12:14;463.73;;;420.27;;
29280;SDS011;25048;49.590;11.026;2023-03-25T01:14:43;419.70;;;383.30;;
29280;SDS011;25048;49.590;11.026;2023-03-25T01:17:11;447.47;;;403.57;;
29280;SDS011;25048;49.590;11.026;2023-03-25T01:19:38;463.30;;;417.30;;
29280;SDS011;25048;49.590;11.026;2023-03-25T01:22:06;486.57;;;434.43;;
29280;SDS011;25048;49.590;11.026;2023-03-25T01:24:33;491.87;;;439.80;;
29280;SDS011;25048;49.590;11.026;2023-03-25T01:27:01;489.40;;;439.80;;
29280;SDS011;25048;49.590;11.026;2023-03-25T01:29:29;509.47;;;456.30;;
29280;SDS011;25048;49.590;11.026;2023-03-25T01:31:57;510.00;;;454.70;;
29280;SDS011;25048;49.590;11.026;2023-03-25T01:34:24;520.57;;;452.67;;
29280;SDS011;25048;49.590;11.026;2023-03-25T01:36:52;630.63;;;449.33;;
29280;SDS011;25048;49.590;11.026;2023-03-25T01:39:20;604.30;;;433.77;;
29280;SDS011;25048;49.590;11.026;2023-03-25T01:41:48;603.93;;;450.73;;
29280;SDS011;25048;49.590;11.026;2023-03-25T01:46:50;713.73;;;425.30;;
29280;SDS011;25048;49.590;11.026;2023-03-25T01:49:19;756.50;;;398.37;;
29280;SDS011;25048;49.590;11.026;2023-03-25T01:51:49;419.00;;;381.20;;
29280;SDS011;25048;49.590;11.026;2023-03-25T01:54:19;404.53;;;369.23;;
29280;SDS011;25048;49.590;11.026;2023-03-25T01:56:47;345.20;;;317.17;;
29280;SDS011;25048;49.590;11.026;2023-03-25T01:59:17;410.70;;;373.47;;
29280;SDS011;25048;49.590;11.026;2023-03-25T02:01:47;420.13;;;382.13;;
29280;SDS011;25048;49.590;11.026;2023-03-25T02:04:27;423.87;;;382.50;;
29280;SDS011;25048;49.590;11.026;2023-03-25T02:06:48;474.93;;;423.87;;
29280;SDS011;25048;49.590;11.026;2023-03-25T02:09:23;477.50;;;424.07;;
29280;SDS011;25048;49.590;11.026;2023-03-25T02:11:51;474.17;;;422.23;;
29280;SDS011;25048;49.590;11.026;2023-03-25T02:14:20;487.20;;;410.90;;
29280;SDS011;25048;49.590;11.026;2023-03-25T02:28:13;310.90;;;286.93;;
29280;SDS011;25048;49.590;11.026;2023-03-25T02:30:46;307.87;;;284.10;;
29280;SDS011;25048;49.590;11.026;2023-03-25T02:33:34;375.37;;;343.27;;
29280;SDS011;25048;49.590;11.026;2023-03-25T02:36:20;403.77;;;365.43;;
29280;SDS011;25048;49.590;11.026;2023-03-25T02:38:59;408.37;;;368.63;;
29280;SDS011;25048;49.590;11.026;2023-03-25T02:44:20;343.53;;;315.90;;
29280;SDS011;25048;49.590;11.026;2023-03-25T02:46:53;219.97;;;205.63;;
29280;SDS011;25048;49.590;11.026;2023-03-25T02:49:32;205.17;;;191.77;;
29280;SDS011;25048;49.590;11.026;2023-03-25T02:52:14;202.80;;;189.63;;
29280;SDS011;25048;49.590;11.026;2023-03-25T02:54:44;390.87;;;354.30;;
29280;SDS011;25048;49.590;11.026;2023-03-25T02:57:15;402.17;;;366.47;;
29280;SDS011;25048;49.590;11.026;2023-03-25T02:59:46;706.67;;;388.87;;
29280;SDS011;25048;49.590;11.026;2023-03-25T03:02:15;284.30;;;263.63;;
29280;SDS011;25048;49.590;11.026;2023-03-25T03:04:44;346.13;;;317.67;;
29280;SDS011;25048;49.590;11.026;2023-03-25T03:07:23;331.63;;;304.37;;
29280;SDS011;25048;49.590;11.026;2023-03-25T03:12:40;265.17;;;246.87;;
29280;SDS011;25048;49.590;11.026;2023-03-25T03:15:16;654.53;;;418.07;;
29280;SDS011;25048;49.590;11.026;2023-03-25T03:17:46;142.50;;;133.20;;
29280;SDS011;25048;49.590;11.026;2023-03-25T03:20:20;118.80;;;111.57;;
29280;SDS011;25048;49.590;11.026;2023-03-25T03:23:09;198.50;;;184.80;;
29280;SDS011;25048;49.590;11.026;2023-03-25T03:25:45;273.83;;;253.33;;
29280;SDS011;25048;49.590;11.026;2023-03-25T03:28:20;232.73;;;216.70;;
29280;SDS011;25048;49.590;11.026;2023-03-25T03:30:48;200.13;;;186.57;;
29280;SDS011;25048;49.590;11.026;2023-03-25T03:33:46;317.93;;;292.43;;
29280;SDS011;25048;49.590;11.026;2023-03-25T03:36:16;280.60;;;259.73;;
29280;SDS011;25048;49.590;11.026;2023-03-25T03:38:52;362.40;;;330.97;;
29280;SDS011;25048;49.590;11.026;2023-03-25T03:41:21;264.70;;;245.27;;
29280;SDS011;25048;49.590;11.026;2023-03-25T03:43:53;281.43;;;260.70;;
29280;SDS011;25048;49.590;11.026;2023-03-25T03:46:32;306.20;;;282.53;;
29280;SDS011;25048;49.590;11.026;2023-03-25T03:49:01;319.67;;;294.93;;
29280;SDS011;25048;49.590;11.026;2023-03-25T03:51:33;410.87;;;372.03;;
29280;SDS011;25048;49.590;11.026;2023-03-25T03:54:09;300.37;;;278.10;;
29280;SDS011;25048;49.590;11.026;2023-03-25T03:56:38;609.13;;;418.13;;
29280;SDS011;25048;49.590;11.026;2023-03-25T03:59:15;251.43;;;233.83;;
29280;SDS011;25048;49.590;11.026;2023-03-25T04:01:43;330.70;;;303.73;;
29280;SDS011;25048;49.590;11.026;2023-03-25T04:04:21;377.40;;;344.60;;
29280;SDS011;25048;49.590;11.026;2023-03-25T04:12:26;727.80;;;393.70;;
29280;SDS011;25048;49.590;11.026;2023-03-25T04:15:01;246.47;;;229.83;;
29280;SDS011;25048;49.590;11.026;2023-03-25T04:17:31;243.87;;;227.20;;
29280;SDS011;25048;49.590;11.026;2023-03-25T04:19:59;224.00;;;208.83;;
29280;SDS011;25048;49.590;11.026;2023-03-25T04:22:28;514.17;;;426.47;;
29280;SDS011;25048;49.590;11.026;2023-03-25T04:24:56;753.50;;;377.33;;
29280;SDS011;25048;49.590;11.026;2023-03-25T04:27:25;649.57;;;409.23;;
29280;SDS011;25048;49.590;11.026;2023-03-25T04:29:57;747.63;;;378.37;;
29280;SDS011;25048;49.590;11.026;2023-03-25T04:32:26;324.20;;;296.77;;
29280;SDS011;25048;49.590;11.026;2023-03-25T04:34:54;284.80;;;263.03;;
29280;SDS011;25048;49.590;11.026;2023-03-25T04:37:25;261.27;;;241.70;;
29280;SDS011;25048;49.590;11.026;2023-03-25T04:39:54;398.97;;;359.30;;
29280;SDS011;25048;49.590;11.026;2023-03-25T04:42:23;415.23;;;374.63;;
29280;SDS011;25048;49.590;11.026;2023-03-25T04:44:52;367.23;;;334.90;;
29280;SDS011;25048;49.590;11.026;2023-03-25T04:47:20;350.80;;;320.80;;
29280;SDS011;25048;49.590;11.026;2023-03-25T04:49:50;400.13;;;360.00;;
29280;SDS011;25048;49.590;11.026;2023-03-25T04:52:17;683.27;;;373.57;;
29280;SDS011;25048;49.590;11.026;2023-03-25T04:54:45;735.67;;;345.57;;
29280;SDS011;25048;49.590;11.026;2023-03-25T04:57:12;733.27;;;339.47;;
29280;SDS011;25048;49.590;11.026;2023-03-25T04:59:40;729.30;;;332.37;;
29280;SDS011;25048;49.590;11.026;2023-03-25T05:02:07;749.13;;;373.70;;
29280;SDS011;25048;49.590;11.026;2023-03-25T05:04:38;689.47;;;386.83;;
29280;SDS011;25048;49.590;11.026;2023-03-25T05:07:10;732.00;;;343.07;;
29280;SDS011;25048;49.590;11.026;2023-03-25T05:09:38;735.70;;;343.50;;
29280;SDS011;25048;49.590;11.026;2023-03-25T05:12:05;663.27;;;390.93;;
29280;SDS011;25048;49.590;11.026;2023-03-25T05:14:36;490.77;;;407.93;;
29280;SDS011;25048;49.590;11.026;2023-03-25T05:17:03;491.17;;;412.27;;
29280;SDS011;25048;49.590;11.026;2023-03-25T05:19:31;549.33;;;398.10;;
29280;SDS011;25048;49.590;11.026;2023-03-25T05:21:59;724.30;;;335.73;;
29280;SDS011;25048;49.590;11.026;2023-03-25T05:24:27;529.57;;;408.47;;
29280;SDS011;25048;49.590;11.026;2023-03-25T05:26:55;685.87;;;415.17;;
29280;SDS011;25048;49.590;11.026;2023-03-25T05:29:24;668.50;;;411.03;;
29280;SDS011;25048;49.590;11.026;2023-03-25T05:31:52;574.23;;;404.00;;
29280;SDS011;25048;49.590;11.026;2023-03-25T05:34:19;703.27;;;311.40;;
29280;SDS011;25048;49.590;11.026;2023-03-25T05:36:47;537.30;;;412.77;;
29280;SDS011;25048;49.590;11.026;2023-03-25T05:39:14;711.40;;;313.53;;
29280;SDS011;25048;49.590;11.026;2023-03-25T05:41:42;608.40;;;405.57;;
29280;SDS011;25048;49.590;11.026;2023-03-25T05:44:10;618.40;;;415.07;;
29280;SDS011;25048;49.590;11.026;2023-03-25T05:46:39;739.83;;;362.87;;
29280;SDS011;25048;49.590;11.026;2023-03-25T05:49:07;704.57;;;376.63;;
29280;SDS011;25048;49.590;11.026;2023-03-25T05:51:34;527.80;;;409.00;;
29280;SDS011;25048;49.590;11.026;2023-03-25T05:54:03;597.33;;;412.90;;
29280;SDS011;25048;49.590;11.026;2023-03-25T05:56:35;737.77;;;365.23;;
29280;SDS011;25048;49.590;11.026;2023-03-25T05:59:02;581.70;;;419.43;;
29280;SDS011;25048;49.590;11.026;2023-03-25T06:01:30;560.00;;;420.10;;
29280;SDS011;25048;49.590;11.026;2023-03-25T06:04:00;584.93;;;426.03;;
29280;SDS011;25048;49.590;11.026;2023-03-25T06:06:28;602.70;;;421.37;;
29280;SDS011;25048;49.590;11.026;2023-03-25T06:08:58;650.83;;;421.67;;
29280;SDS011;25048;49.590;11.026;2023-03-25T06:11:26;734.67;;;348.90;;
29280;SDS011;25048;49.590;11.026;2023-03-25T06:13:54;591.77;;;420.37;;
29280;SDS011;25048;49.590;11.026;2023-03-25T06:16:22;534.13;;;428.97;;
29280;SDS011;25048;49.590;11.026;2023-03-25T06:18:53;541.23;;;422.43;;
29280;SDS011;25048;49.590;11.026;2023-03-25T06:21:22;550.27;;;420.83;;
29280;SDS011;25048;49.590;11.026;2023-03-25T06:23:53;601.60;;;424.30;;
29280;SDS011;25048;49.590;11.026;2023-03-25T06:26:21;591.77;;;432.53;;
29280;SDS011;25048;49.590;11.026;2023-03-25T06:28:49;745.93;;;372.37;;
29280;SDS011;25048;49.590;11.026;2023-03-25T06:31:24;508.40;;;415.70;;
29280;SDS011;25048;49.590;11.026;2023-03-25T06:33:52;600.57;;;407.27;;
29280;SDS011;25048;49.590;11.026;2023-03-25T06:36:22;564.93;;;424.77;;
29280;SDS011;25048;49.590;11.026;2023-03-25T06:38:50;601.73;;;425.57;;
29280;SDS011;25048;49.590;11.026;2023-03-25T06:41:18;626.40;;;420.73;;
29280;SDS011;25048;49.590;11.026;2023-03-25T06:43:46;603.07;;;428.30;;
29280;SDS011;25048;49.590;11.026;2023-03-25T06:46:14;737.07;;;351.50;;
29280;SDS011;25048;49.590;11.026;2023-03-25T06:48:42;480.33;;;407.60;;
29280;SDS011;25048;49.590;11.026;2023-03-25T06:51:10;506.07;;;424.00;;
29280;SDS011;25048;49.590;11.026;2023-03-25T06:53:37;514.37;;;425.70;;
29280;SDS011;25048;49.590;11.026;2023-03-25T06:56:05;483.07;;;427.47;;
29280;SDS011;25048;49.590;11.026;2023-03-25T06:58:32;503.17;;;414.63;;
29280;SDS011;25048;49.590;11.026;2023-03-25T07:01:01;541.73;;;431.47;;
29280;SDS011;25048;49.590;11.026;2023-03-25T07:03:31;504.13;;;430.17;;
29280;SDS011;25048;49.590;11.026;2023-03-25T07:05:59;537.90;;;434.50;;
29280;SDS011;25048;49.590;11.026;2023-03-25T07:08:26;524.83;;;437.83;;
29280;SDS011;25048;49.590;11.026;2023-03-25T07:10:59;559.93;;;437.20;;
29280;SDS011;25048;49.590;11.026;2023-03-25T07:13:27;546.27;;;423.43;;
29280;SDS011;25048;49.590;11.026;2023-03-25T07:15:56;506.23;;;429.27;;
29280;SDS011;25048;49.590;11.026;2023-03-25T07:18:24;581.13;;;424.13;;
29280;SDS011;25048;49.590;11.026;2023-03-25T07:20:52;610.30;;;433.10;;
29280;SDS011;25048;49.590;11.026;2023-03-25T07:23:20;569.30;;;439.40;;
29280;SDS011;25048;49.590;11.026;2023-03-25T07:25:48;620.77;;;442.27;;
29280;SDS011;25048;49.590;11.026;2023-03-25T07:28:15;635.47;;;439.97;;
29280;SDS011;25048;49.590;11.026;2023-03-25T07:30:43;690.83;;;435.67;;
29280;SDS011;25048;49.590;11.026;2023-03-25T07:33:11;589.57;;;458.83;;
29280;SDS011;25048;49.590;11.026;2023-03-25T07:35:38;765.73;;;406.80;;
29280;SDS011;25048;49.590;11.026;2023-03-25T07:38:05;518.53;;;454.40;;
29280;SDS011;25048;49.590;11.026;2023-03-25T07:40:34;617.17;;;468.20;;
29280;SDS011;25048;49.590;11.026;2023-03-25T07:43:02;666.43;;;464.30;;
29280;SDS011;25048;49.590;11.026;2023-03-25T07:45:29;728.90;;;463.10;;
29280;SDS011;25048;49.590;11.026;2023-03-25T07:47:59;516.13;;;463.63;;
29280;SDS011;25048;49.590;11.026;2023-03-25T07:50:27;543.47;;;484.30;;
29280;SDS011;25048;49.590;11.026;2023-03-25T07:52:54;512.87;;;462.13;;
29280;SDS011;25048;49.590;11.026;2023-03-25T07:55:22;647.93;;;498.10;;
29280;SDS011;25048;49.590;11.026;2023-03-25T07:57:49;784.60;;;477.90;;
29280;SDS011;25048;49.590;11.026;2023-03-25T08:00:17;559.53;;;501.83;;
29280;SDS011;25048;49.590;11.026;2023-03-25T08:02:45;593.93;;;501.60;;
29280;SDS011;25048;49.590;11.026;2023-03-25T08:05:12;606.77;;;504.50;;
29280;SDS011;25048;49.590;11.026;2023-03-25T08:07:41;767.97;;;433.03;;
29280;SDS011;25048;49.590;11.026;2023-03-25T08:10:09;487.07;;;442.27;;
29280;SDS011;25048;49.590;11.026;2023-03-25T08:12:38;526.10;;;474.40;;
29280;SDS011;25048;49.590;11.026;2023-03-25T08:15:06;555.47;;;497.80;;
29280;SDS011;25048;49.590;11.026;2023-03-25T08:17:36;531.30;;;480.40;;
29280;SDS011;25048;49.590;11.026;2023-03-25T08:20:05;530.10;;;479.30;;
29280;SDS011;25048;49.590;11.026;2023-03-25T08:22:33;508.27;;;462.27;;
29280;SDS011;25048;49.590;11.026;2023-03-25T08:25:01;564.87;;;511.50;;
29280;SDS011;25048;49.590;11.026;2023-03-25T08:27:28;578.33;;;521.30;;
29280;SDS011;25048;49.590;11.026;2023-03-25T08:29:56;679.63;;;533.57;;
29280;SDS011;25048;49.590;11.026;2023-03-25T08:32:25;606.53;;;541.23;;
29280;SDS011;25048;49.590;11.026;2023-03-25T08:34:53;770.73;;;514.93;;
29280;SDS011;25048;49.590;11.026;2023-03-25T08:37:21;608.97;;;535.27;;
29280;SDS011;25048;49.590;11.026;2023-03-25T08:39:50;624.87;;;546.57;;
29280;SDS011;25048;49.590;11.026;2023-03-25T08:42:19;751.13;;;552.97;;
29280;SDS011;25048;49.590;11.026;2023-03-25T08:44:47;632.43;;;571.20;;
29280;SDS011;25048;49.590;11.026;2023-03-25T08:47:15;639.70;;;576.90;;
29280;SDS011;25048;49.590;11.026;2023-03-25T08:49:42;805.43;;;518.07;;
29280;SDS011;25048;49.590;11.026;2023-03-25T08:52:10;546.03;;;499.60;;
29280;SDS011;25048;49.590;11.026;2023-03-25T08:54:37;548.83;;;504.20;;
29280;SDS011;25048;49.590;11.026;2023-03-25T08:57:05;507.83;;;468.13;;
29280;SDS011;25048;49.590;11.026;2023-03-25T08:59:32;557.43;;;511.60;;
29280;SDS011;25048;49.590;11.026;2023-03-25T09:02:00;596.13;;;545.50;;
29280;SDS011;25048;49.590;11.026;2023-03-25T09:04:28;624.20;;;569.63;;
29280;SDS011;25048;49.590;11.026;2023-03-25T09:06:56;557.73;;;511.87;;
29280;SDS011;25048;49.590;11.026;2023-03-25T09:09:23;566.47;;;519.67;;
29280;SDS011;25048;49.590;11.026;2023-03-25T09:11:51;579.73;;;530.03;;
29280;SDS011;25048;49.590;11.026;2023-03-25T09:14:19;722.23;;;646.27;;
29280;SDS011;25048;49.590;11.026;2023-03-25T09:16:46;640.17;;;585.77;;
29280;SDS011;25048;49.590;11.026;2023-03-25T09:19:14;735.03;;;651.50;;
29280;SDS011;25048;49.590;11.026;2023-03-25T09:21:41;638.47;;;582.90;;
29280;SDS011;25048;49.590;11.026;2023-03-25T09:24:09;728.73;;;661.53;;
29280;SDS011;25048;49.590;11.026;2023-03-25T09:26:37;640.17;;;586.77;;
29280;SDS011;25048;49.590;11.026;2023-03-25T09:29:05;762.27;;;682.60;;
29280;SDS011;25048;49.590;11.026;2023-03-25T09:31:33;749.67;;;666.90;;
29280;SDS011;25048;49.590;11.026;2023-03-25T09:34:00;596.27;;;548.17;;
29280;SDS011;25048;49.590;11.026;2023-03-25T09:36:28;832.57;;;608.53;;
29280;SDS011;25048;49.590;11.026;2023-03-25T09:38:56;455.37;;;423.40;;
29280;SDS011;25048;49.590;11.026;2023-03-25T09:41:27;462.40;;;429.97;;
29280;SDS011;25048;49.590;11.026;2023-03-25T09:44:04;451.97;;;420.97;;
29280;SDS011;25048;49.590;11.026;2023-03-25T09:46:46;512.57;;;473.97;;
29280;SDS011;25048;49.590;11.026;2023-03-25T09:49:19;563.43;;;519.80;;
29280;SDS011;25048;49.590;11.026;2023-03-25T09:51:48;556.07;;;512.40;;
29280;SDS011;25048;49.590;11.026;2023-03-25T09:56:53;629.30;;;574.67;;
29280;SDS011;25048;49.590;11.026;2023-03-25T09:59:23;639.87;;;585.87;;
29280;SDS011;25048;49.590;11.026;2023-03-25T10:08:03;527.67;;;486.80;;
29280;SDS011;25048;49.590;11.026;2023-03-25T10:10:38;718.60;;;659.07;;
29280;SDS011;25048;49.590;11.026;2023-03-25T10:13:17;649.73;;;596.47;;
29280;SDS011;25048;49.590;11.026;2023-03-25T10:15:49;618.47;;;569.13;;
29280;SDS011;25048;49.590;11.026;2023-03-25T10:18:28;726.60;;;665.87;;
29280;SDS011;25048;49.590;11.026;2023-03-25T10:20:58;748.77;;;683.77;;
29280;SDS011;25048;49.590;11.026;2023-03-25T10:26:36;773.53;;;699.10;;
29280;SDS011;25048;49.590;11.026;2023-03-25T10:29:21;775.27;;;687.27;;
29280;SDS011;25048;49.590;11.026;2023-03-25T10:31:55;711.53;;;651.00;;
29280;SDS011;25048;49.590;11.026;2023-03-25T10:34:35;802.53;;;655.17;;
29280;SDS011;25048;49.590;11.026;2023-03-25T10:37:00;832.20;;;643.90;;
29280;SDS011;25048;49.590;11.026;2023-03-25T10:39:30;837.00;;;631.80;;
29280;SDS011;25048;49.590;11.026;2023-03-25T10:42:09;766.47;;;646.37;;
29280;SDS011;25048;49.590;11.026;2023-03-25T10:44:48;681.67;;;621.53;;
29280;SDS011;25048;49.590;11.026;2023-03-25T10:47:21;734.43;;;614.37;;
29280;SDS011;25048;49.590;11.026;2023-03-25T10:49:47;761.43;;;643.93;;
29280;SDS011;25048;49.590;11.026;2023-03-25T10:52:16;810.87;;;590.77;;
29280;SDS011;25048;49.590;11.026;2023-03-25T10:54:44;619.47;;;568.83;;
29280;SDS011;25048;49.590;11.026;2023-03-25T10:57:17;676.60;;;618.40;;
29280;SDS011;25048;49.590;11.026;2023-03-25T11:02:26;707.37;;;643.33;;
29280;SDS011;25048;49.590;11.026;2023-03-25T11:04:57;709.13;;;644.60;;
29280;SDS011;25048;49.590;11.026;2023-03-25T11:07:29;712.20;;;641.87;;
29280;SDS011;25048;49.590;11.026;2023-03-25T11:10:08;787.57;;;636.17;;
29280;SDS011;25048;49.590;11.026;2023-03-25T11:12:38;722.73;;;634.93;;
29280;SDS011;25048;49.590;11.026;2023-03-25T11:15:12;778.73;;;619.47;;
29280;SDS011;25048;49.590;11.026;2023-03-25T11:21:02;804.07;;;518.30;;
29280;SDS011;25048;49.590;11.026;2023-03-25T11:23:41;758.27;;;444.10;;
29280;SDS011;25048;49.590;11.026;2023-03-25T11:26:11;769.17;;;461.77;;
29280;SDS011;25048;49.590;11.026;2023-03-25T11:28:43;754.23;;;425.87;;
29280;SDS011;25048;49.590;11.026;2023-03-25T11:31:18;712.40;;;326.90;;
29280;SDS011;25048;49.590;11.026;2023-03-25T11:34:05;700.90;;;314.87;;
29280;SDS011;25048;49.590;11.026;2023-03-25T11:36:34;679.70;;;282.57;;
29280;SDS011;25048;49.590;11.026;2023-03-25T11:42:13;695.10;;;304.30;;
29280;SDS011;25048;49.590;11.026;2023-03-25T11:44:41;716.03;;;332.50;;
29280;SDS011;25048;49.590;11.026;2023-03-25T11:47:20;709.10;;;323.17;;
29280;SDS011;25048;49.590;11.026;2023-03-25T11:49:51;781.73;;;449.50;;
29280;SDS011;25048;49.590;11.026;2023-03-25T11:52:20;782.23;;;457.90;;
29280;SDS011;25048;49.590;11.026;2023-03-25T11:54:52;727.73;;;377.07;;
29280;SDS011;25048;49.590;11.026;2023-03-25T11:57:27;778.57;;;455.03;;
29280;SDS011;25048;49.590;11.026;2023-03-25T12:02:35;811.27;;;537.50;;
29280;SDS011;25048;49.590;11.026;2023-03-25T12:07:46;772.40;;;465.47;;
29280;SDS011;25048;49.590;11.026;2023-03-25T12:10:27;766.60;;;472.17;;
29280;SDS011;25048;49.590;11.026;2023-03-25T12:15:54;807.50;;;566.63;;
29280;SDS011;25048;49.590;11.026;2023-03-25T12:24:17;829.53;;;613.73;;
29280;SDS011;25048;49.590;11.026;2023-03-25T12:32:27;840.90;;;625.07;;
29280;SDS011;25048;49.590;11.026;2023-03-25T12:37:46;785.13;;;530.67;;
29280;SDS011;25048;49.590;11.026;2023-03-25T12:40:28;862.87;;;694.30;;
29280;SDS011;25048;49.590;11.026;2023-03-25T12:43:03;874.00;;;719.20;;
29280;SDS011;25048;49.590;11.026;2023-03-25T12:45:57;775.03;;;539.80;;
29280;SDS011;25048;49.590;11.026;2023-03-25T12:53:34;833.83;;;654.20;;
29280;SDS011;25048;49.590;11.026;2023-03-25T12:58:58;796.33;;;574.53;;
29280;SDS011;25048;49.590;11.026;2023-03-25T13:07:18;761.27;;;508.13;;
29280;SDS011;25048;49.590;11.026;2023-03-25T13:09:55;737.97;;;470.57;;
29280;SDS011;25048;49.590;11.026;2023-03-25T13:12:37;739.57;;;473.50;;
29280;SDS011;25048;49.590;11.026;2023-03-25T13:17:59;823.33;;;614.23;;
29280;SDS011;25048;49.590;11.026;2023-03-25T13:20:36;812.77;;;605.70;;
29280;SDS011;25048;49.590;11.026;2023-03-25T13:23:05;798.13;;;574.17;;
29280;SDS011;25048;49.590;11.026;2023-03-25T13:25:41;767.90;;;506.77;;
29280;SDS011;25048;49.590;11.026;2023-03-25T13:28:10;749.73;;;472.90;;
29280;SDS011;25048;49.590;11.026;2023-03-25T13:30:41;754.30;;;463.87;;
29280;SDS011;25048;49.590;11.026;2023-03-25T13:33:15;740.30;;;429.10;;
29280;SDS011;25048;49.590;11.026;2023-03-25T13:35:58;725.47;;;374.10;;
29280;SDS011;25048;49.590;11.026;2023-03-25T13:38:31;718.17;;;354.03;;
29280;SDS011;25048;49.590;11.026;2023-03-25T13:41:10;715.97;;;343.03;;
29280;SDS011;25048;49.590;11.026;2023-03-25T13:46:43;701.30;;;303.80;;
29280;SDS011;25048;49.590;11.026;2023-03-25T13:49:26;704.73;;;321.63;;
29280;SDS011;25048;49.590;11.026;2023-03-25T13:51:51;718.20;;;337.70;;
29280;SDS011;25048;49.590;11.026;2023-03-25T13:54:20;717.63;;;353.30;;
29280;SDS011;25048;49.590;11.026;2023-03-25T13:57:14;729.70;;;375.37;;
29280;SDS011;25048;49.590;11.026;2023-03-25T13:59:54;730.80;;;391.50;;
29280;SDS011;25048;49.590;11.026;2023-03-25T14:02:30;735.23;;;414.47;;
29280;SDS011;25048;49.590;11.026;2023-03-25T14:11:24;732.90;;;416.60;;
29280;SDS011;25048;49.590;11.026;2023-03-25T14:13:57;739.37;;;433.17;;
29280;SDS011;25048;49.590;11.026;2023-03-25T14:16:28;738.60;;;433.17;;
29280;SDS011;25048;49.590;11.026;2023-03-25T14:18:58;742.70;;;437.43;;
29280;SDS011;25048;49.590;11.026;2023-03-25T14:24:12;749.20;;;462.30;;
29280;SDS011;25048;49.590;11.026;2023-03-25T14:27:00;745.50;;;462.13;;
29280;SDS011;25048;49.590;11.026;2023-03-25T14:29:35;756.20;;;497.10;;
29280;SDS011;25048;49.590;11.026;2023-03-25T14:32:05;757.20;;;503.83;;
29280;SDS011;25048;49.590;11.026;2023-03-25T14:34:34;774.57;;;532.37;;
29280;SDS011;25048;49.590;11.026;2023-03-25T14:39:37;769.97;;;554.23;;
29280;SDS011;25048;49.590;11.026;2023-03-25T14:44:41;771.97;;;559.50;;
29280;SDS011;25048;49.590;11.026;2023-03-25T14:52:40;751.13;;;504.13;;
29280;SDS011;25048;49.590;11.026;2023-03-25T14:55:25;758.17;;;521.90;;
29280;SDS011;25048;49.590;11.026;2023-03-25T14:58:04;756.83;;;506.30;;
29280;SDS011;25048;49.590;11.026;2023-03-25T15:00:39;758.93;;;520.30;;
29280;SDS011;25048;49.590;11.026;2023-03-25T15:03:10;754.80;;;501.07;;
29280;SDS011;25048;49.590;11.026;2023-03-25T15:05:38;756.33;;;517.53;;
29280;SDS011;25048;49.590;11.026;2023-03-25T15:10:39;769.53;;;544.37;;
29280;SDS011;25048;49.590;11.026;2023-03-25T15:21:24;779.40;;;592.83;;
29280;SDS011;25048;49.590;11.026;2023-03-25T15:23:58;795.83;;;634.90;;
29280;SDS011;25048;49.590;11.026;2023-03-25T15:26:39;778.07;;;601.13;;
29280;SDS011;25048;49.590;11.026;2023-03-25T15:32:17;775.67;;;604.10;;
29280;SDS011;25048;49.590;11.026;2023-03-25T15:37:59;782.63;;;610.67;;
29280;SDS011;25048;49.590;11.026;2023-03-25T15:40:54;769.33;;;576.67;;
29280;SDS011;25048;49.590;11.026;2023-03-25T15:43:46;777.67;;;598.33;;
29280;SDS011;25048;49.590;11.026;2023-03-25T15:46:26;776.67;;;598.80;;
29280;SDS011;25048;49.590;11.026;2023-03-25T15:49:12;781.47;;;607.63;;
29280;SDS011;25048;49.590;11.026;2023-03-25T15:54:25;775.77;;;605.63;;
29280;SDS011;25048;49.590;11.026;2023-03-25T15:56:58;784.83;;;624.70;;
29280;SDS011;25048;49.590;11.026;2023-03-25T15:59:53;788.90;;;634.20;;
29280;SDS011;25048;49.590;11.026;2023-03-25T16:02:29;779.60;;;617.60;;
29280;SDS011;25048;49.590;11.026;2023-03-25T16:05:03;790.20;;;648.43;;
29280;SDS011;25048;49.590;11.026;2023-03-25T16:07:32;855.77;;;741.93;;
29280;SDS011;25048;49.590;11.026;2023-03-25T16:10:15;875.00;;;787.63;;
29280;SDS011;25048;49.590;11.026;2023-03-25T16:12:46;871.57;;;764.20;;